Tuesday, November 21, 2017, 10:51 AM EST
Back to Local

KDDH, Bennington Morse State Airport

Location: Bennington, VT, United States Lat: 42.883
Local Time: 10:51 AM EST (15:51 GMT) Lon: -73.25
Time Zone: US/Eastern Elev: 826 ft

Show me the last for .
Show Decoded

2017-11-21 09:54 METAR KDDH 211454Z AUTO 19009G18KT 10SM CLR 10/M05 A2996 RMK AO2 SLP150
                 T01001050 58017 =
2017-11-21 08:54 METAR KDDH 211354Z AUTO 25003KT 10SM CLR 06/M02 A2998 RMK AO2 SLP159 T00561022 =
2017-11-21 07:54 METAR KDDH 211254Z AUTO 33003KT 10SM CLR M02/M04 A3001 RMK AO2 SLP170 T10171044
                 =
2017-11-21 06:54 METAR KDDH 211154Z AUTO 00000KT 10SM CLR M03/M06 A3001 RMK AO2 SLP172 T10331056
                 11017 21050 51006 =
2017-11-21 05:54 METAR KDDH 211054Z AUTO 00000KT 10SM CLR M04/M06 A3001 RMK AO2 SLP172 T10391061
                 =
2017-11-21 04:54 METAR KDDH 210954Z AUTO 00000KT 9SM CLR M03/M05 A3000 RMK AO2 SLP168 T10331050 =
2017-11-21 03:54 METAR KDDH 210854Z AUTO VRB03KT 10SM CLR M03/M06 A3000 RMK AO2 SLP166 T10331056
                 58004 =
2017-11-21 02:54 METAR KDDH 210754Z AUTO 00000KT 10SM CLR M03/M05 A3001 RMK AO2 SLP170 T10281050
                 =
2017-11-21 01:54 METAR KDDH 210654Z AUTO 00000KT 10SM CLR M02/M04 A3001 RMK AO2 SLP171 T10171039
                 =
2017-11-21 00:54 METAR KDDH 210554Z AUTO 15003KT 9SM CLR M02/M04 A3001 RMK AO2 SLP171 T10171039
                 10022 21022 56002 =
2017-11-20 23:54 METAR KDDH 210454Z AUTO 00000KT 8SM CLR M01/M03 A3001 RMK AO2 SLP171 T10111028
                 400281017 =
2017-11-20 22:54 METAR KDDH 210354Z AUTO 00000KT 10SM OVC044 01/M02 A3001 RMK AO2 SLP170
                 T00111017 =
2017-11-20 21:54 METAR KDDH 210254Z AUTO 00000KT 10SM OVC046 02/M02 A3002 RMK AO2 SLP172
                 T00171017 53004 =
2017-11-20 20:54 METAR KDDH 210154Z AUTO 00000KT 10SM FEW018 OVC033 02/M02 A3001 RMK AO2 SLP170
                 T00171017 =
2017-11-20 20:51 METAR KDDH 210151Z AUTO 00000KT 10SM SCT018 OVC033 02/M02 A3001 RMK AO2 =
2017-11-20 19:54 METAR KDDH 210054Z AUTO 29005KT 10SM OVC023 02/M02 A3000 RMK AO2 SLP169
                 T00171022 =
2017-11-20 18:54 METAR KDDH 202354Z AUTO VRB06KT 10SM BKN028 OVC035 02/M03 A3000 RMK AO2 SLP168
                 T00221033 10028 20011 51026 =
2017-11-20 18:45 METAR KDDH 202345Z AUTO VRB06KT 10SM BKN029 OVC035 02/M03 A3000 RMK AO2
                 T00221033 =
2017-11-20 17:54 METAR KDDH 202254Z AUTO 25006KT 10SM BKN032 OVC038 02/M04 A2998 RMK AO2 SLP161
                 T00221044 =
2017-11-20 16:54 METAR KDDH 202154Z AUTO 24009G16KT 10SM BKN035 OVC070 02/M05 A2995 RMK AO2
                 SLP151 T00221050 =
2017-11-20 15:54 METAR KDDH 202054Z AUTO 24009KT 210V310 10SM BKN043 BKN050 OVC080 02/M06 A2993
                 RMK AO2 SLP142 T00221056 53013 =
2017-11-20 14:54 METAR KDDH 201954Z AUTO 26006G16KT 10SM SCT048 03/M06 A2989 RMK AO2 SLP131
                 T00281061 =
2017-11-20 13:54 METAR KDDH 201854Z AUTO 26009G17KT 210V300 10SM FEW043 02/M06 A2988 RMK AO2
                 SLP127 T00221061 =
2017-11-20 12:54 METAR KDDH 201754Z AUTO 29012G19KT 10SM SCT027 BKN035 BKN042 01/M06 A2989 RMK
                 AO2 SLP128 T00111061 10011 21017 58013 =
2017-11-20 12:09 METAR KDDH 201709Z AUTO 27005G15KT 10SM FEW024 BKN041 OVC055 00/M06 A2991 RMK
                 AO2 T00001056 =
2017-11-20 11:54 METAR KDDH 201654Z AUTO 26008KT 210V310 10SM SCT025 BKN029 OVC042 M01/M06 A2991
                 RMK AO2 SLP137 T10061056 =
2017-11-20 11:21 METAR KDDH 201621Z AUTO VRB06KT 10SM BKN027 BKN038 OVC080 M01/M06 A2991 RMK AO2
                 T10061061 =
2017-11-20 10:54 METAR KDDH 201554Z AUTO 28008KT 250V320 10SM FEW029 BKN039 OVC075 M01/M07 A2992
                 RMK AO2 SLP140 T10111072 =

Support USWX by starting your Amazon purchase here.